createdAt,value
2022-09-22T00:03:01.602Z,8.48
2022-09-22T00:08:06.290Z,8.41
2022-09-22T00:13:20.614Z,8.29
2022-09-22T00:18:48.059Z,8.14
2022-09-22T00:23:56.474Z,8.00
2022-09-22T00:29:02.613Z,7.93
2022-09-22T00:34:19.492Z,8.02
2022-09-22T00:39:32.059Z,8.14
2022-09-22T00:44:43.726Z,8.20
2022-09-22T00:49:51.797Z,8.14
2022-09-22T00:54:57.850Z,8.01
2022-09-22T01:00:04.247Z,7.84
2022-09-22T01:05:08.620Z,7.71
2022-09-22T01:10:11.974Z,7.71
2022-09-22T01:15:21.206Z,7.82
2022-09-22T01:21:15.313Z,7.89
2022-09-22T01:26:47.538Z,7.89
2022-09-22T01:32:40.718Z,7.92
2022-09-22T01:38:15.321Z,7.97
2022-09-22T01:43:28.446Z,7.97
2022-09-22T01:48:35.958Z,7.88
2022-09-22T01:53:46.858Z,7.74
2022-09-22T01:58:54.099Z,7.60
2022-09-22T02:04:07.110Z,7.47
2022-09-22T02:09:13.145Z,7.38
2022-09-22T02:14:16.676Z,7.28
2022-09-22T02:19:32.852Z,7.21
2022-09-22T02:24:41.750Z,7.12
2022-09-22T02:29:49.057Z,7.09
2022-09-22T02:34:54.099Z,7.06
2022-09-22T02:40:13.111Z,6.97
2022-09-22T02:45:24.571Z,6.78
2022-09-22T02:50:29.215Z,6.71
2022-09-22T02:55:32.609Z,6.67
2022-09-22T03:00:37.730Z,6.56
2022-09-22T03:05:41.052Z,6.51
2022-09-22T03:10:44.403Z,6.64
2022-09-22T03:15:47.731Z,6.71
2022-09-22T03:20:51.017Z,6.75
2022-09-22T03:26:01.374Z,6.76
2022-09-22T03:31:08.170Z,6.73
2022-09-22T03:36:11.622Z,6.63
2022-09-22T03:41:14.874Z,6.48
2022-09-22T03:46:18.316Z,6.34
2022-09-22T03:51:22.399Z,6.24
2022-09-22T03:56:25.801Z,6.13
2022-09-22T04:01:30.241Z,6.00
2022-09-22T04:06:34.728Z,5.88
2022-09-22T04:11:39.196Z,5.84
2022-09-22T04:16:43.831Z,5.82
2022-09-22T04:21:47.155Z,5.83
2022-09-22T04:27:08.572Z,5.81
2022-09-22T04:32:15.303Z,5.82
2022-09-22T04:37:18.632Z,5.76
2022-09-22T04:42:22.133Z,5.73
2022-09-22T04:47:27.003Z,5.78
2022-09-22T04:52:30.456Z,5.90
2022-09-22T04:57:40.772Z,5.91
2022-09-22T05:02:44.208Z,5.89
2022-09-22T05:07:49.851Z,5.87
2022-09-22T05:12:56.598Z,5.89
2022-09-22T05:18:00.620Z,5.92
2022-09-22T05:23:10.595Z,6.01
2022-09-22T05:28:14.172Z,6.07
2022-09-22T05:33:17.614Z,6.16
2022-09-22T05:38:20.828Z,6.26
2022-09-22T05:43:24.577Z,6.43
2022-09-22T05:48:31.466Z,6.63
2022-09-22T05:53:35.972Z,6.77
2022-09-22T05:58:39.243Z,6.93
2022-09-22T06:03:42.591Z,7.08
2022-09-22T06:08:48.977Z,7.29
2022-09-22T06:13:52.695Z,7.48
2022-09-22T06:18:56.444Z,7.67
2022-09-22T06:23:59.752Z,8.02
2022-09-22T06:29:02.984Z,8.32
2022-09-22T06:34:07.717Z,8.47
2022-09-22T06:39:17.682Z,8.49
2022-09-22T06:44:22.203Z,8.64
2022-09-22T06:49:27.029Z,8.81
2022-09-22T06:54:30.780Z,8.98
2022-09-22T06:59:36.211Z,9.27
2022-09-22T07:04:40.234Z,9.77
2022-09-22T07:09:44.212Z,9.93
2022-09-22T07:14:49.730Z,10.33
2022-09-22T07:19:56.793Z,10.65
2022-09-22T07:25:00.702Z,10.85
2022-09-22T07:30:04.410Z,11.09
2022-09-22T07:35:08.650Z,11.24
2022-09-22T07:40:12.020Z,11.43
2022-09-22T07:45:15.798Z,11.62
2022-09-22T07:50:19.085Z,11.85
2022-09-22T07:55:24.460Z,11.81
2022-09-22T08:00:33.250Z,11.52
2022-09-22T08:05:36.956Z,11.42
2022-09-22T08:10:40.183Z,11.49
2022-09-22T08:15:43.521Z,11.64
2022-09-22T08:20:46.982Z,11.81
2022-09-22T08:25:51.074Z,12.04
2022-09-22T08:30:55.109Z,12.23
2022-09-22T08:36:04.552Z,12.50
2022-09-22T08:41:27.663Z,12.92
2022-09-22T08:46:35.932Z,13.27
2022-09-22T08:51:53.820Z,13.19
2022-09-22T08:57:06.200Z,13.18
2022-09-22T09:02:37.802Z,13.42
2022-09-22T09:08:00.939Z,13.61
2022-09-22T09:13:24.674Z,13.77
2022-09-22T09:19:01.415Z,13.93
2022-09-22T09:29:39.012Z,14.30
2022-09-22T09:34:43.549Z,14.52
2022-09-22T09:39:47.509Z,14.60
2022-09-22T09:45:05.977Z,14.45
2022-09-22T09:50:11.445Z,14.37
2022-09-22T09:55:27.863Z,14.35
2022-09-22T10:00:32.338Z,14.57
2022-09-22T10:05:37.902Z,14.75
2022-09-22T10:10:41.522Z,14.75
2022-09-22T10:16:01.556Z,14.86
2022-09-22T10:21:18.425Z,14.98
2022-09-22T10:26:22.061Z,14.93
2022-09-22T10:31:25.635Z,14.91
2022-09-22T10:36:32.192Z,15.07
2022-09-22T10:41:38.055Z,15.19
2022-09-22T10:47:06.561Z,15.32
2022-09-22T10:52:31.083Z,15.42
2022-09-22T10:58:09.505Z,15.54
2022-09-22T11:03:40.562Z,15.99
2022-09-22T11:09:25.560Z,16.31
2022-09-22T11:14:32.362Z,16.16
2022-09-22T11:19:50.892Z,15.95
2022-09-22T11:25:00.248Z,16.20
2022-09-22T11:30:23.986Z,15.96
2022-09-22T11:35:34.245Z,15.43
2022-09-22T11:40:50.125Z,15.54
2022-09-22T11:46:15.536Z,15.47
2022-09-22T11:51:36.965Z,15.85
2022-09-22T11:57:01.647Z,16.20
2022-09-22T12:02:15.546Z,16.14
2022-09-22T12:07:30.986Z,16.30
2022-09-22T12:12:35.360Z,16.44
2022-09-22T12:17:50.212Z,16.55
2022-09-22T12:23:08.793Z,16.41
2022-09-22T12:28:21.778Z,16.28
2022-09-22T12:33:27.446Z,16.22
2022-09-22T12:38:31.921Z,16.21
2022-09-22T12:43:37.559Z,16.30
2022-09-22T12:48:48.670Z,16.33
2022-09-22T12:53:52.747Z,16.18
2022-09-22T12:58:56.707Z,16.12
2022-09-22T13:04:18.246Z,16.20
2022-09-22T13:09:29.022Z,16.44
2022-09-22T13:15:01.668Z,16.58
2022-09-22T13:20:24.335Z,16.77
2022-09-22T13:25:30.520Z,16.64
2022-09-22T13:30:42.485Z,16.68
2022-09-22T13:35:46.194Z,16.89
2022-09-22T13:40:53.194Z,17.04
2022-09-22T13:46:01.793Z,17.05
2022-09-22T13:51:11.832Z,16.99
2022-09-22T13:56:21.970Z,16.95
2022-09-22T14:01:27.698Z,16.64
2022-09-22T14:06:35.162Z,16.62
2022-09-22T14:11:55.941Z,16.86
2022-09-22T14:17:35.535Z,17.06
2022-09-22T14:22:57.802Z,17.21
2022-09-22T14:28:05.633Z,17.30
2022-09-22T14:33:18.255Z,17.18
2022-09-22T14:38:24.536Z,17.07
2022-09-22T14:43:42.394Z,16.87
2022-09-22T14:48:47.407Z,16.86
2022-09-22T14:54:04.152Z,16.63
2022-09-22T14:59:36.279Z,16.54
2022-09-22T15:04:48.138Z,16.45
2022-09-22T15:09:55.978Z,16.33
2022-09-22T15:15:31.495Z,16.22
2022-09-22T15:20:51.464Z,16.15
2022-09-22T15:26:04.775Z,16.21
2022-09-22T15:31:12.186Z,16.20
2022-09-22T15:36:24.836Z,16.15
2022-09-22T15:41:29.510Z,16.08
2022-09-22T15:46:37.689Z,15.98
2022-09-22T15:51:41.899Z,15.76
2022-09-22T15:56:56.260Z,15.58
2022-09-22T16:02:05.419Z,15.45
2022-09-22T16:07:28.236Z,15.26
2022-09-22T16:13:03.333Z,15.02
2022-09-22T16:19:42.714Z,14.71
2022-09-22T16:31:24.322Z,14.14
2022-09-22T16:36:25.785Z,13.82
2022-09-22T16:42:39.119Z,13.48
2022-09-22T16:48:12.460Z,13.14
2022-09-22T16:53:33.588Z,12.86
2022-09-22T16:58:38.818Z,12.71
2022-09-22T17:03:43.925Z,12.63
2022-09-22T17:08:53.886Z,12.44
2022-09-22T17:14:03.506Z,12.14
2022-09-22T17:19:10.324Z,11.81
2022-09-22T17:24:15.120Z,11.48
2022-09-22T17:29:25.626Z,11.09
2022-09-22T17:34:32.713Z,10.72
2022-09-22T17:39:37.298Z,10.43
2022-09-22T17:44:42.229Z,10.18
2022-09-22T17:50:05.147Z,9.95
2022-09-22T17:55:24.472Z,9.74
2022-09-22T18:00:31.193Z,9.56
2022-09-22T18:05:36.505Z,9.40
2022-09-22T18:10:40.086Z,9.25
2022-09-22T18:15:43.565Z,9.12
2022-09-22T18:20:49.273Z,9.05
2022-09-22T18:25:52.821Z,8.93
2022-09-22T18:30:56.285Z,8.83
2022-09-22T18:36:04.066Z,8.73
2022-09-22T18:41:07.670Z,8.57
2022-09-22T18:46:12.505Z,8.33
2022-09-22T18:51:16.301Z,8.14
2022-09-22T18:56:20.003Z,8.02
2022-09-22T19:01:24.093Z,7.95
2022-09-22T19:06:28.055Z,7.90
2022-09-22T19:11:33.114Z,7.93
2022-09-22T19:16:37.203Z,7.97
2022-09-22T19:21:41.240Z,7.91
2022-09-22T19:26:44.584Z,7.80
2022-09-22T19:31:49.041Z,7.67
2022-09-22T19:36:56.050Z,7.55
2022-09-22T19:42:01.388Z,7.41
2022-09-22T19:47:07.391Z,7.24
2022-09-22T19:52:12.598Z,7.08
2022-09-22T19:57:15.815Z,6.93
2022-09-22T20:02:21.012Z,6.84
2022-09-22T20:07:27.981Z,6.77
2022-09-22T20:12:31.596Z,6.69
2022-09-22T20:17:35.601Z,6.61
2022-09-22T20:22:41.227Z,6.50
2022-09-22T20:27:44.933Z,6.40
2022-09-22T20:32:55.965Z,6.38
2022-09-22T20:38:04.917Z,6.40
2022-09-22T20:43:12.124Z,6.37
2022-09-22T20:48:19.720Z,6.33
2022-09-22T20:53:27.707Z,6.32
2022-09-22T20:58:34.297Z,6.25
2022-09-22T21:03:39.303Z,6.17
2022-09-22T21:09:02.710Z,6.11
2022-09-22T21:14:15.378Z,6.02
2022-09-22T21:19:18.901Z,5.97
2022-09-22T21:24:28.708Z,5.95
2022-09-22T21:29:33.519Z,5.94
2022-09-22T21:34:37.256Z,6.02
2022-09-22T21:39:41.791Z,5.99
2022-09-22T21:44:47.459Z,5.88
2022-09-22T21:49:50.926Z,5.76
2022-09-22T21:54:56.950Z,5.68
2022-09-22T22:00:00.194Z,5.63
2022-09-22T22:05:03.409Z,5.53
2022-09-22T22:10:07.394Z,5.49
2022-09-22T22:15:11.071Z,5.53
2022-09-22T22:20:16.399Z,5.50
2022-09-22T22:25:20.377Z,5.42
2022-09-22T22:30:24.332Z,5.42
2022-09-22T22:35:27.598Z,5.43
2022-09-22T22:40:32.825Z,5.32
2022-09-22T22:45:36.736Z,5.17
2022-09-22T22:50:41.014Z,5.05
2022-09-22T22:55:59.453Z,5.04
2022-09-22T23:01:20.859Z,5.12
2022-09-22T23:06:40.294Z,5.22
2022-09-22T23:11:45.690Z,5.36
2022-09-22T23:17:04.968Z,5.41
2022-09-22T23:22:09.484Z,5.36
2022-09-22T23:27:13.715Z,5.40
2022-09-22T23:32:19.418Z,5.40
2022-09-22T23:37:25.131Z,5.33
2022-09-22T23:42:29.003Z,5.32
2022-09-22T23:47:33.223Z,5.23
2022-09-22T23:52:51.790Z,5.12
2022-09-22T23:58:08.690Z,4.90
